createdAt,value
2022-09-17T00:05:02.044Z,97999.59
2022-09-17T00:10:05.197Z,98007.41
2022-09-17T00:15:09.139Z,98003.66
2022-09-17T00:20:13.479Z,98004.47
2022-09-17T00:25:16.534Z,98009.41
2022-09-17T00:30:19.223Z,98015.16
2022-09-17T00:35:23.259Z,98013.63
2022-09-17T00:40:26.110Z,98015.31
2022-09-17T00:45:29.999Z,98015.88
2022-09-17T00:50:37.498Z,98011.69
2022-09-17T00:55:42.159Z,98008.75
2022-09-17T01:00:45.598Z,98009.84
2022-09-17T01:05:52.742Z,98015.03
2022-09-17T01:11:14.566Z,98016.72
2022-09-17T01:16:26.845Z,98014.06
2022-09-17T01:21:55.055Z,98010.41
2022-09-17T01:27:25.219Z,98011.69
2022-09-17T01:32:36.099Z,98012.06
2022-09-17T01:37:48.006Z,98013.03
2022-09-17T01:42:54.865Z,98019.06
2022-09-17T01:48:05.112Z,98021.03
2022-09-17T01:53:09.970Z,98020.44
2022-09-17T01:58:17.203Z,98027.19
2022-09-17T02:03:26.427Z,98026.50
2022-09-17T02:08:34.804Z,98031.53
2022-09-17T02:13:44.659Z,98032.25
2022-09-17T02:18:55.732Z,98026.06
2022-09-17T02:24:07.099Z,98030.41
2022-09-17T02:29:15.401Z,98036.59
2022-09-17T02:34:21.409Z,98029.44
2022-09-17T02:39:24.080Z,98020.22
2022-09-17T02:44:38.934Z,98028.06
2022-09-17T02:50:02.714Z,98026.38
2022-09-17T02:55:13.641Z,98032.69
2022-09-17T03:00:20.201Z,98030.84
2022-09-17T03:05:26.741Z,98028.63
2022-09-17T03:10:33.395Z,98042.47
2022-09-17T03:15:36.152Z,98039.34
2022-09-17T03:20:40.209Z,98049.16
2022-09-17T03:25:42.933Z,98030.66
2022-09-17T03:30:47.483Z,98027.97
2022-09-17T03:35:51.579Z,98027.28
2022-09-17T03:41:01.291Z,98030.78
2022-09-17T03:46:04.522Z,98030.66
2022-09-17T03:51:08.711Z,98039.22
2022-09-17T03:56:11.445Z,98044.53
2022-09-17T04:01:14.754Z,98048.00
2022-09-17T04:06:18.997Z,98059.84
2022-09-17T04:11:21.794Z,98061.50
2022-09-17T04:16:24.576Z,98065.28
2022-09-17T04:21:28.716Z,98061.25
2022-09-17T04:26:31.470Z,98065.44
2022-09-17T04:31:34.546Z,98070.75
2022-09-17T04:36:38.718Z,98075.25
2022-09-17T04:41:41.503Z,98074.13
2022-09-17T04:46:44.249Z,98074.84
2022-09-17T04:51:48.355Z,98076.66
2022-09-17T04:56:51.144Z,98086.34
2022-09-17T05:01:53.966Z,98085.34
2022-09-17T05:06:58.342Z,98083.66
2022-09-17T05:12:01.046Z,98091.25
2022-09-17T05:17:03.741Z,98088.59
2022-09-17T05:22:07.835Z,98096.31
2022-09-17T05:27:10.520Z,98103.31
2022-09-17T05:32:13.189Z,98110.19
2022-09-17T05:37:17.218Z,98109.63
2022-09-17T05:42:19.979Z,98126.06
2022-09-17T05:47:22.697Z,98123.53
2022-09-17T05:52:29.427Z,98123.00
2022-09-17T05:57:32.147Z,98125.81
2022-09-17T06:02:34.901Z,98132.66
2022-09-17T06:07:39.659Z,98135.03
2022-09-17T06:12:42.420Z,98143.75
2022-09-17T06:17:45.229Z,98147.97
2022-09-17T06:22:49.463Z,98153.72
2022-09-17T06:27:52.223Z,98158.66
2022-09-17T06:32:55.107Z,98165.41
2022-09-17T06:37:59.176Z,98165.16
2022-09-17T06:43:01.955Z,98167.91
2022-09-17T06:48:06.187Z,98162.28
2022-09-17T06:53:11.075Z,98164.53
2022-09-17T06:58:13.844Z,98172.25
2022-09-17T07:03:21.162Z,98172.94
2022-09-17T07:08:27.666Z,98163.16
2022-09-17T07:13:30.442Z,98176.06
2022-09-17T07:18:34.054Z,98165.31
2022-09-17T07:23:38.705Z,98172.88
2022-09-17T07:28:42.218Z,98170.19
2022-09-17T07:33:45.919Z,98174.44
2022-09-17T07:38:50.075Z,98181.31
2022-09-17T07:43:54.629Z,98188.88
2022-09-17T07:48:57.387Z,98190.56
2022-09-17T07:54:02.255Z,98192.72
2022-09-17T07:59:05.246Z,98184.28
2022-09-17T08:04:08.233Z,98184.88
2022-09-17T08:09:12.743Z,98177.19
2022-09-17T08:14:16.612Z,98184.75
2022-09-17T08:19:20.275Z,98180.28
2022-09-17T08:24:24.882Z,98184.97
2022-09-17T08:29:29.323Z,98208.25
2022-09-17T08:34:34.769Z,98192.41
2022-09-17T08:39:38.898Z,98200.47
2022-09-17T08:44:46.070Z,98209.59
2022-09-17T08:49:53.738Z,98212.53
2022-09-17T08:55:06.560Z,98211.56
2022-09-17T09:00:12.131Z,98208.97
2022-09-17T09:05:18.393Z,98214.06
2022-09-17T09:10:26.377Z,98202.84
2022-09-17T09:15:37.537Z,98208.19
2022-09-17T09:20:49.231Z,98206.34
2022-09-17T09:26:01.329Z,98197.03
2022-09-17T09:31:17.763Z,98204.16
2022-09-17T09:36:21.968Z,98202.38
2022-09-17T09:41:32.766Z,98194.25
2022-09-17T09:47:12.335Z,98193.50
2022-09-17T09:52:30.129Z,98187.19
2022-09-17T09:57:41.207Z,98206.38
2022-09-17T10:02:44.307Z,98197.53
2022-09-17T10:07:47.263Z,98191.13
2022-09-17T10:13:06.728Z,98189.81
2022-09-17T10:18:17.797Z,98182.53
2022-09-17T10:23:21.971Z,98185.31
2022-09-17T10:28:31.411Z,98219.22
2022-09-17T10:33:36.877Z,98215.88
2022-09-17T10:38:41.612Z,98200.13
2022-09-17T10:43:46.214Z,98204.78
2022-09-17T10:49:00.531Z,98199.88
2022-09-17T10:54:16.560Z,98202.06
2022-09-17T10:59:46.787Z,98192.56
2022-09-17T11:04:56.858Z,98202.47
2022-09-17T11:10:09.104Z,98188.03
2022-09-17T11:15:30.867Z,98175.22
2022-09-17T11:20:54.091Z,98169.44
2022-09-17T11:26:01.021Z,98166.72
2022-09-17T11:31:24.009Z,98179.44
2022-09-17T11:36:31.864Z,98183.31
2022-09-17T11:41:41.208Z,98173.13
2022-09-17T11:46:47.745Z,98178.38
2022-09-17T11:51:56.422Z,98161.97
2022-09-17T11:57:09.849Z,98156.47
2022-09-17T12:02:23.364Z,98162.13
2022-09-17T12:07:35.836Z,98155.69
2022-09-17T12:12:50.146Z,98153.97
2022-09-17T12:18:30.515Z,98128.41
2022-09-17T12:23:38.574Z,98140.75
2022-09-17T12:28:52.318Z,98133.53
2022-09-17T12:34:02.755Z,98133.28
2022-09-17T12:39:30.572Z,98122.28
2022-09-17T12:45:09.096Z,98118.06
2022-09-17T12:50:21.616Z,98114.94
2022-09-17T12:55:37.577Z,98116.47
2022-09-17T13:00:45.781Z,98121.03
2022-09-17T13:06:17.062Z,98124.16
2022-09-17T13:11:43.752Z,98127.25
2022-09-17T13:16:54.740Z,98124.69
2022-09-17T13:22:07.283Z,98141.13
2022-09-17T13:27:22.321Z,98158.44
2022-09-17T13:32:47.713Z,98166.19
2022-09-17T13:37:58.900Z,98160.13
2022-09-17T13:43:10.240Z,98153.75
2022-09-17T13:48:21.020Z,98158.66
2022-09-17T13:53:28.178Z,98159.50
2022-09-17T13:58:33.327Z,98153.94
2022-09-17T14:03:56.800Z,98143.44
2022-09-17T14:09:03.199Z,98160.31
2022-09-17T14:14:49.618Z,98166.63
2022-09-17T14:19:55.553Z,98157.16
2022-09-17T14:25:00.102Z,98160.91
2022-09-17T14:30:13.343Z,98150.34
2022-09-17T14:35:21.101Z,98159.75
2022-09-17T14:40:26.305Z,98164.53
2022-09-17T14:45:33.386Z,98181.38
2022-09-17T14:50:36.929Z,98208.47
2022-09-17T14:55:42.558Z,98203.69
2022-09-17T15:00:53.201Z,98181.00
2022-09-17T15:05:56.165Z,98198.44
2022-09-17T15:11:03.338Z,98181.41
2022-09-17T15:16:13.269Z,98173.69
2022-09-17T15:21:33.223Z,98165.56
2022-09-17T15:26:41.002Z,98163.59
2022-09-17T15:31:43.852Z,98159.84
2022-09-17T15:37:05.075Z,98162.88
2022-09-17T15:42:20.051Z,98151.13
2022-09-17T15:47:51.571Z,98145.16
2022-09-17T15:53:12.833Z,98158.19
2022-09-17T15:58:24.568Z,98161.22
2022-09-17T16:04:08.392Z,98213.94
2022-09-17T16:09:47.788Z,98248.91
2022-09-17T16:14:53.657Z,98236.63
2022-09-17T16:19:57.252Z,98210.28
2022-09-17T16:24:59.973Z,98209.53
2022-09-17T16:30:14.688Z,98196.78
2022-09-17T16:35:19.597Z,98197.50
2022-09-17T16:40:25.162Z,98188.66
2022-09-17T16:45:29.395Z,98188.63
2022-09-17T16:50:32.674Z,98186.75
2022-09-17T16:55:35.735Z,98194.25
2022-09-17T17:00:43.022Z,98201.38
2022-09-17T17:05:45.621Z,98195.50
2022-09-17T17:10:50.619Z,98202.31
2022-09-17T17:15:55.082Z,98200.00
2022-09-17T17:20:58.113Z,98204.47
2022-09-17T17:26:00.905Z,98206.25
2022-09-17T17:31:05.933Z,98207.38
2022-09-17T17:36:08.839Z,98209.81
2022-09-17T17:41:13.040Z,98211.94
2022-09-17T17:46:17.149Z,98206.41
2022-09-17T17:51:20.036Z,98208.84
2022-09-17T17:56:23.432Z,98201.28
2022-09-17T18:01:29.469Z,98213.66
2022-09-17T18:06:32.488Z,98216.81
2022-09-17T18:11:36.193Z,98221.22
2022-09-17T18:16:40.441Z,98230.28
2022-09-17T18:21:43.241Z,98254.72
2022-09-17T18:26:47.482Z,98253.44
2022-09-17T18:31:52.117Z,98265.97
2022-09-17T18:36:55.358Z,98264.28
2022-09-17T18:41:58.219Z,98272.41
2022-09-17T18:47:02.703Z,98276.28
2022-09-17T18:52:05.523Z,98274.22
2022-09-17T18:57:08.251Z,98284.28
2022-09-17T19:02:13.993Z,98285.97
2022-09-17T19:07:16.861Z,98292.13
2022-09-17T19:12:19.810Z,98296.69
2022-09-17T19:17:24.011Z,98294.75
2022-09-17T19:22:27.221Z,98300.94
2022-09-17T19:27:31.011Z,98295.47
2022-09-17T19:32:35.399Z,98294.41
2022-09-17T19:37:38.200Z,98305.75
2022-09-17T19:42:41.020Z,98308.03
2022-09-17T19:47:45.197Z,98321.78
2022-09-17T19:52:47.930Z,98311.47
2022-09-17T19:57:50.840Z,98309.69
2022-09-17T20:02:55.027Z,98310.50
2022-09-17T20:07:58.117Z,98309.09
2022-09-17T20:13:00.904Z,98304.47
2022-09-17T20:18:05.304Z,98307.75
2022-09-17T20:23:08.172Z,98311.13
2022-09-17T20:28:10.893Z,98310.63
2022-09-17T20:33:15.149Z,98303.34
2022-09-17T20:39:09.565Z,98307.44
2022-09-17T20:43:42.199Z,98307.78
2022-09-17T20:48:46.609Z,98308.41
2022-09-17T20:53:50.057Z,98294.84
2022-09-17T20:59:00.062Z,98296.88
2022-09-17T21:04:08.674Z,98297.06
2022-09-17T21:09:16.031Z,98302.69
2022-09-17T21:14:20.681Z,98304.72
2022-09-17T21:19:25.403Z,98312.44
2022-09-17T21:24:28.508Z,98306.75
2022-09-17T21:29:31.275Z,98305.50
2022-09-17T21:34:35.401Z,98309.03
2022-09-17T21:39:38.931Z,98320.66
2022-09-17T21:44:41.798Z,98314.47
2022-09-17T21:49:45.859Z,98320.38
2022-09-17T21:54:48.622Z,98314.09
2022-09-17T21:59:51.294Z,98315.78
2022-09-17T22:04:55.382Z,98308.50
2022-09-17T22:09:58.148Z,98307.38
2022-09-17T22:15:00.941Z,98310.63
2022-09-17T22:20:06.629Z,98316.09
2022-09-17T22:25:10.549Z,98321.16
2022-09-17T22:30:13.623Z,98324.66
2022-09-17T22:35:17.706Z,98328.03
2022-09-17T22:40:21.044Z,98327.06
2022-09-17T22:45:25.077Z,98325.38
2022-09-17T22:50:29.199Z,98325.97
2022-09-17T22:55:31.967Z,98315.31
2022-09-17T23:00:34.903Z,98314.34
2022-09-17T23:05:39.102Z,98309.84
2022-09-17T23:10:42.438Z,98317.84
2022-09-17T23:15:48.771Z,98315.88
2022-09-17T23:20:59.445Z,98314.78
2022-09-17T23:26:04.251Z,98309.47
2022-09-17T23:31:11.018Z,98308.34
2022-09-17T23:36:16.965Z,98309.31
2022-09-17T23:41:22.201Z,98310.28
2022-09-17T23:46:27.211Z,98314.19
2022-09-17T23:51:32.424Z,98322.19
2022-09-17T23:56:35.863Z,98319.78
